sensor_id;sensor_type;location;lat;lon;timestamp;temperature;humidity
5508;DHT22;2776;51.046;6.772;2022-09-09T00:00:13;17.60;99.90
5508;DHT22;2776;51.046;6.772;2022-09-09T00:02:44;17.60;99.90
5508;DHT22;2776;51.046;6.772;2022-09-09T00:05:19;17.70;99.90
5508;DHT22;2776;51.046;6.772;2022-09-09T00:07:53;17.60;99.90
5508;DHT22;2776;51.046;6.772;2022-09-09T00:10:28;17.60;99.90
5508;DHT22;2776;51.046;6.772;2022-09-09T00:13:04;17.60;99.90
5508;DHT22;2776;51.046;6.772;2022-09-09T00:15:38;17.50;99.90
5508;DHT22;2776;51.046;6.772;2022-09-09T00:18:15;17.50;99.90
5508;DHT22;2776;51.046;6.772;2022-09-09T00:20:47;17.40;99.90
5508;DHT22;2776;51.046;6.772;2022-09-09T00:23:24;17.40;99.90
5508;DHT22;2776;51.046;6.772;2022-09-09T00:25:59;17.40;99.90
5508;DHT22;2776;51.046;6.772;2022-09-09T00:28:27;17.40;99.90
5508;DHT22;2776;51.046;6.772;2022-09-09T00:30:59;17.40;99.90
5508;DHT22;2776;51.046;6.772;2022-09-09T00:33:30;17.40;99.90
5508;DHT22;2776;51.046;6.772;2022-09-09T00:35:58;17.40;99.90
5508;DHT22;2776;51.046;6.772;2022-09-09T00:38:32;17.40;99.90
5508;DHT22;2776;51.046;6.772;2022-09-09T00:41:05;17.50;99.90
5508;DHT22;2776;51.046;6.772;2022-09-09T00:43:35;17.50;99.90
5508;DHT22;2776;51.046;6.772;2022-09-09T00:49:21;17.50;99.90
5508;DHT22;2776;51.046;6.772;2022-09-09T00:51:58;17.60;99.90
5508;DHT22;2776;51.046;6.772;2022-09-09T00:54:38;17.50;99.90
5508;DHT22;2776;51.046;6.772;2022-09-09T00:57:25;17.60;99.90
5508;DHT22;2776;51.046;6.772;2022-09-09T00:59:58;17.50;99.90
5508;DHT22;2776;51.046;6.772;2022-09-09T01:02:30;17.50;99.90
5508;DHT22;2776;51.046;6.772;2022-09-09T01:05:05;17.50;99.90
5508;DHT22;2776;51.046;6.772;2022-09-09T01:07:33;17.40;99.90
5508;DHT22;2776;51.046;6.772;2022-09-09T01:10:03;17.40;99.90
5508;DHT22;2776;51.046;6.772;2022-09-09T01:12:38;17.30;99.90
5508;DHT22;2776;51.046;6.772;2022-09-09T01:15:11;17.30;99.90
5508;DHT22;2776;51.046;6.772;2022-09-09T01:17:46;17.20;99.90
5508;DHT22;2776;51.046;6.772;2022-09-09T01:20:20;17.20;99.90
5508;DHT22;2776;51.046;6.772;2022-09-09T01:22:57;17.10;99.90
5508;DHT22;2776;51.046;6.772;2022-09-09T01:28:16;17.00;99.90
5508;DHT22;2776;51.046;6.772;2022-09-09T01:30:44;16.90;99.90
5508;DHT22;2776;51.046;6.772;2022-09-09T01:33:14;16.90;99.90
5508;DHT22;2776;51.046;6.772;2022-09-09T01:35:46;17.00;99.90
5508;DHT22;2776;51.046;6.772;2022-09-09T01:38:17;17.10;99.90
5508;DHT22;2776;51.046;6.772;2022-09-09T01:40:44;17.10;99.90
5508;DHT22;2776;51.046;6.772;2022-09-09T01:43:12;17.00;99.90
5508;DHT22;2776;51.046;6.772;2022-09-09T01:45:40;17.00;99.90
5508;DHT22;2776;51.046;6.772;2022-09-09T01:48:09;17.10;99.90
5508;DHT22;2776;51.046;6.772;2022-09-09T01:50:35;17.00;99.90
5508;DHT22;2776;51.046;6.772;2022-09-09T01:53:02;16.90;99.90
5508;DHT22;2776;51.046;6.772;2022-09-09T01:55:32;17.00;99.90
5508;DHT22;2776;51.046;6.772;2022-09-09T01:58:11;17.00;99.90
5508;DHT22;2776;51.046;6.772;2022-09-09T02:00:46;17.00;99.90
5508;DHT22;2776;51.046;6.772;2022-09-09T02:03:20;17.10;99.90
5508;DHT22;2776;51.046;6.772;2022-09-09T02:05:55;17.00;99.90
5508;DHT22;2776;51.046;6.772;2022-09-09T02:08:30;17.10;99.90
5508;DHT22;2776;51.046;6.772;2022-09-09T02:11:03;17.00;99.90
5508;DHT22;2776;51.046;6.772;2022-09-09T02:13:32;17.10;99.90
5508;DHT22;2776;51.046;6.772;2022-09-09T02:16:07;17.10;99.90
5508;DHT22;2776;51.046;6.772;2022-09-09T02:18:38;17.00;99.90
5508;DHT22;2776;51.046;6.772;2022-09-09T02:21:07;17.00;99.90
5508;DHT22;2776;51.046;6.772;2022-09-09T02:23:35;17.00;99.90
5508;DHT22;2776;51.046;6.772;2022-09-09T02:26:03;17.00;99.90
5508;DHT22;2776;51.046;6.772;2022-09-09T02:28:32;17.00;99.90
5508;DHT22;2776;51.046;6.772;2022-09-09T02:31:02;17.00;99.90
5508;DHT22;2776;51.046;6.772;2022-09-09T02:33:33;17.00;99.90
5508;DHT22;2776;51.046;6.772;2022-09-09T02:36:03;17.00;99.90
5508;DHT22;2776;51.046;6.772;2022-09-09T02:38:35;16.90;99.90
5508;DHT22;2776;51.046;6.772;2022-09-09T02:41:02;16.90;99.90
5508;DHT22;2776;51.046;6.772;2022-09-09T02:43:31;16.90;99.90
5508;DHT22;2776;51.046;6.772;2022-09-09T02:46:20;16.90;99.90
5508;DHT22;2776;51.046;6.772;2022-09-09T02:48:59;16.90;99.90
5508;DHT22;2776;51.046;6.772;2022-09-09T02:51:35;17.00;99.90
5508;DHT22;2776;51.046;6.772;2022-09-09T02:54:09;17.00;99.90
5508;DHT22;2776;51.046;6.772;2022-09-09T02:56:42;17.10;99.90
5508;DHT22;2776;51.046;6.772;2022-09-09T02:59:11;17.00;99.90
5508;DHT22;2776;51.046;6.772;2022-09-09T03:01:39;17.00;99.90
5508;DHT22;2776;51.046;6.772;2022-09-09T03:04:06;17.00;99.90
5508;DHT22;2776;51.046;6.772;2022-09-09T03:06:33;17.00;99.90
5508;DHT22;2776;51.046;6.772;2022-09-09T03:09:01;17.00;99.90
5508;DHT22;2776;51.046;6.772;2022-09-09T03:11:28;17.00;99.90
5508;DHT22;2776;51.046;6.772;2022-09-09T03:13:55;17.00;99.90
5508;DHT22;2776;51.046;6.772;2022-09-09T03:16:22;17.00;99.90
5508;DHT22;2776;51.046;6.772;2022-09-09T03:18:51;17.00;99.90
5508;DHT22;2776;51.046;6.772;2022-09-09T03:21:17;17.00;99.90
5508;DHT22;2776;51.046;6.772;2022-09-09T03:23:44;17.00;99.90
5508;DHT22;2776;51.046;6.772;2022-09-09T03:26:11;17.00;99.90
5508;DHT22;2776;51.046;6.772;2022-09-09T03:28:40;16.90;99.90
5508;DHT22;2776;51.046;6.772;2022-09-09T03:31:07;16.90;99.90
5508;DHT22;2776;51.046;6.772;2022-09-09T03:33:35;16.90;99.90
5508;DHT22;2776;51.046;6.772;2022-09-09T03:36:04;16.90;99.90
5508;DHT22;2776;51.046;6.772;2022-09-09T03:38:30;17.00;99.90
5508;DHT22;2776;51.046;6.772;2022-09-09T03:40:57;17.00;99.90
5508;DHT22;2776;51.046;6.772;2022-09-09T03:43:25;17.00;99.90
5508;DHT22;2776;51.046;6.772;2022-09-09T03:45:52;17.00;99.90
5508;DHT22;2776;51.046;6.772;2022-09-09T03:48:22;17.00;99.90
5508;DHT22;2776;51.046;6.772;2022-09-09T03:50:50;17.00;99.90
5508;DHT22;2776;51.046;6.772;2022-09-09T03:53:20;17.00;99.90
5508;DHT22;2776;51.046;6.772;2022-09-09T03:55:48;17.00;99.90
5508;DHT22;2776;51.046;6.772;2022-09-09T03:58:16;17.00;99.90
5508;DHT22;2776;51.046;6.772;2022-09-09T04:00:52;17.00;99.90
5508;DHT22;2776;51.046;6.772;2022-09-09T04:03:19;17.00;99.90
5508;DHT22;2776;51.046;6.772;2022-09-09T04:05:48;17.10;99.90
5508;DHT22;2776;51.046;6.772;2022-09-09T04:08:15;17.10;99.90
5508;DHT22;2776;51.046;6.772;2022-09-09T04:10:44;17.10;99.90
5508;DHT22;2776;51.046;6.772;2022-09-09T04:13:12;17.10;99.90
5508;DHT22;2776;51.046;6.772;2022-09-09T04:15:40;17.10;99.90
5508;DHT22;2776;51.046;6.772;2022-09-09T04:18:07;17.10;99.90
5508;DHT22;2776;51.046;6.772;2022-09-09T04:20:34;17.10;99.90
5508;DHT22;2776;51.046;6.772;2022-09-09T04:23:01;17.20;99.90
5508;DHT22;2776;51.046;6.772;2022-09-09T04:25:28;17.20;99.90
5508;DHT22;2776;51.046;6.772;2022-09-09T04:27:57;17.20;99.90
5508;DHT22;2776;51.046;6.772;2022-09-09T04:30:25;17.20;99.90
5508;DHT22;2776;51.046;6.772;2022-09-09T04:32:52;17.30;99.90
5508;DHT22;2776;51.046;6.772;2022-09-09T04:35:19;17.20;99.90
5508;DHT22;2776;51.046;6.772;2022-09-09T04:37:46;17.20;99.90
5508;DHT22;2776;51.046;6.772;2022-09-09T04:40:14;17.20;99.90
5508;DHT22;2776;51.046;6.772;2022-09-09T04:42:40;17.30;99.90
5508;DHT22;2776;51.046;6.772;2022-09-09T04:45:10;17.30;99.90
5508;DHT22;2776;51.046;6.772;2022-09-09T04:47:39;17.40;99.90
5508;DHT22;2776;51.046;6.772;2022-09-09T04:50:07;17.30;99.90
5508;DHT22;2776;51.046;6.772;2022-09-09T04:52:34;17.30;99.90
5508;DHT22;2776;51.046;6.772;2022-09-09T04:55:00;17.40;99.90
5508;DHT22;2776;51.046;6.772;2022-09-09T04:57:27;17.40;99.90
5508;DHT22;2776;51.046;6.772;2022-09-09T04:59:54;17.40;99.90
5508;DHT22;2776;51.046;6.772;2022-09-09T05:02:22;17.50;99.90
5508;DHT22;2776;51.046;6.772;2022-09-09T05:04:49;17.50;99.90
5508;DHT22;2776;51.046;6.772;2022-09-09T05:07:16;17.40;99.90
5508;DHT22;2776;51.046;6.772;2022-09-09T05:09:42;17.40;99.90
5508;DHT22;2776;51.046;6.772;2022-09-09T05:12:10;17.40;99.90
5508;DHT22;2776;51.046;6.772;2022-09-09T05:14:37;17.40;99.90
5508;DHT22;2776;51.046;6.772;2022-09-09T05:17:04;17.40;99.90
5508;DHT22;2776;51.046;6.772;2022-09-09T05:19:32;17.40;99.90
5508;DHT22;2776;51.046;6.772;2022-09-09T05:21:59;17.40;99.90
5508;DHT22;2776;51.046;6.772;2022-09-09T05:24:26;17.50;99.90
5508;DHT22;2776;51.046;6.772;2022-09-09T05:26:53;17.50;99.90
5508;DHT22;2776;51.046;6.772;2022-09-09T05:29:23;17.50;99.90
5508;DHT22;2776;51.046;6.772;2022-09-09T05:31:50;17.50;99.90
5508;DHT22;2776;51.046;6.772;2022-09-09T05:34:16;17.50;99.90
5508;DHT22;2776;51.046;6.772;2022-09-09T05:36:45;17.50;99.90
5508;DHT22;2776;51.046;6.772;2022-09-09T05:39:12;17.50;99.90
5508;DHT22;2776;51.046;6.772;2022-09-09T05:41:39;17.50;99.90
5508;DHT22;2776;51.046;6.772;2022-09-09T05:44:05;17.50;99.90
5508;DHT22;2776;51.046;6.772;2022-09-09T05:46:32;17.60;99.90
5508;DHT22;2776;51.046;6.772;2022-09-09T05:48:59;17.50;99.90
5508;DHT22;2776;51.046;6.772;2022-09-09T05:51:27;17.50;99.90
5508;DHT22;2776;51.046;6.772;2022-09-09T05:53:56;17.50;99.90
5508;DHT22;2776;51.046;6.772;2022-09-09T05:56:26;17.50;99.90
5508;DHT22;2776;51.046;6.772;2022-09-09T05:58:54;17.50;99.90
5508;DHT22;2776;51.046;6.772;2022-09-09T06:01:22;17.50;99.90
5508;DHT22;2776;51.046;6.772;2022-09-09T06:03:51;17.50;99.90
5508;DHT22;2776;51.046;6.772;2022-09-09T06:06:19;17.50;99.90
5508;DHT22;2776;51.046;6.772;2022-09-09T06:08:48;17.60;99.90
5508;DHT22;2776;51.046;6.772;2022-09-09T06:11:19;17.60;99.90
5508;DHT22;2776;51.046;6.772;2022-09-09T06:13:47;17.60;99.90
5508;DHT22;2776;51.046;6.772;2022-09-09T06:16:17;17.70;99.90
5508;DHT22;2776;51.046;6.772;2022-09-09T06:18:45;17.70;99.90
5508;DHT22;2776;51.046;6.772;2022-09-09T06:21:15;17.70;99.90
5508;DHT22;2776;51.046;6.772;2022-09-09T06:23:42;17.80;99.90
5508;DHT22;2776;51.046;6.772;2022-09-09T06:26:11;17.80;99.90
5508;DHT22;2776;51.046;6.772;2022-09-09T06:28:40;17.80;99.90
5508;DHT22;2776;51.046;6.772;2022-09-09T06:31:09;17.80;99.90
5508;DHT22;2776;51.046;6.772;2022-09-09T06:33:37;17.80;99.90
5508;DHT22;2776;51.046;6.772;2022-09-09T06:36:07;17.90;99.90
5508;DHT22;2776;51.046;6.772;2022-09-09T06:38:36;17.90;99.90
5508;DHT22;2776;51.046;6.772;2022-09-09T06:41:04;18.10;99.90
5508;DHT22;2776;51.046;6.772;2022-09-09T06:43:31;18.20;99.90
5508;DHT22;2776;51.046;6.772;2022-09-09T06:46:01;18.30;99.90
5508;DHT22;2776;51.046;6.772;2022-09-09T06:48:29;18.40;99.90
5508;DHT22;2776;51.046;6.772;2022-09-09T06:51:03;18.60;99.90
5508;DHT22;2776;51.046;6.772;2022-09-09T06:53:31;18.90;99.90
5508;DHT22;2776;51.046;6.772;2022-09-09T06:55:59;19.00;99.90
5508;DHT22;2776;51.046;6.772;2022-09-09T06:58:26;19.10;99.90
5508;DHT22;2776;51.046;6.772;2022-09-09T07:01:02;19.20;99.90
5508;DHT22;2776;51.046;6.772;2022-09-09T07:03:29;19.50;99.90
5508;DHT22;2776;51.046;6.772;2022-09-09T07:05:55;19.70;99.90
5508;DHT22;2776;51.046;6.772;2022-09-09T07:08:23;19.80;99.90
5508;DHT22;2776;51.046;6.772;2022-09-09T07:10:50;19.80;99.90
5508;DHT22;2776;51.046;6.772;2022-09-09T07:13:19;19.80;99.90
5508;DHT22;2776;51.046;6.772;2022-09-09T07:15:46;19.80;99.90
5508;DHT22;2776;51.046;6.772;2022-09-09T07:18:14;19.70;99.90
5508;DHT22;2776;51.046;6.772;2022-09-09T07:20:41;19.70;99.90
5508;DHT22;2776;51.046;6.772;2022-09-09T07:23:08;19.60;99.90
5508;DHT22;2776;51.046;6.772;2022-09-09T07:25:34;19.70;99.90
5508;DHT22;2776;51.046;6.772;2022-09-09T07:28:02;19.70;99.90
5508;DHT22;2776;51.046;6.772;2022-09-09T07:30:28;19.80;99.90
5508;DHT22;2776;51.046;6.772;2022-09-09T07:32:55;19.70;99.90
5508;DHT22;2776;51.046;6.772;2022-09-09T07:35:25;19.70;99.90
5508;DHT22;2776;51.046;6.772;2022-09-09T07:37:52;19.80;99.90
5508;DHT22;2776;51.046;6.772;2022-09-09T07:40:19;19.80;99.90
5508;DHT22;2776;51.046;6.772;2022-09-09T07:42:47;19.80;99.90
5508;DHT22;2776;51.046;6.772;2022-09-09T07:45:13;19.80;99.90
5508;DHT22;2776;51.046;6.772;2022-09-09T07:47:40;19.80;99.90
5508;DHT22;2776;51.046;6.772;2022-09-09T07:50:08;20.00;99.90
5508;DHT22;2776;51.046;6.772;2022-09-09T07:52:36;20.10;99.90
5508;DHT22;2776;51.046;6.772;2022-09-09T07:55:04;20.00;99.90
5508;DHT22;2776;51.046;6.772;2022-09-09T07:57:31;20.00;99.90
5508;DHT22;2776;51.046;6.772;2022-09-09T07:59:58;20.10;99.90
5508;DHT22;2776;51.046;6.772;2022-09-09T08:02:24;20.20;99.90
5508;DHT22;2776;51.046;6.772;2022-09-09T08:04:54;20.20;99.90
5508;DHT22;2776;51.046;6.772;2022-09-09T08:07:22;20.20;99.90
5508;DHT22;2776;51.046;6.772;2022-09-09T08:09:50;20.10;99.90
5508;DHT22;2776;51.046;6.772;2022-09-09T08:12:17;20.10;99.90
5508;DHT22;2776;51.046;6.772;2022-09-09T08:14:43;20.20;99.90
5508;DHT22;2776;51.046;6.772;2022-09-09T08:17:10;20.20;99.90
5508;DHT22;2776;51.046;6.772;2022-09-09T08:19:37;20.30;99.90
5508;DHT22;2776;51.046;6.772;2022-09-09T08:22:03;20.40;99.90
5508;DHT22;2776;51.046;6.772;2022-09-09T08:24:30;20.40;99.90
5508;DHT22;2776;51.046;6.772;2022-09-09T08:26:58;20.30;99.90
5508;DHT22;2776;51.046;6.772;2022-09-09T08:29:25;20.40;99.90
5508;DHT22;2776;51.046;6.772;2022-09-09T08:31:55;20.50;99.90
5508;DHT22;2776;51.046;6.772;2022-09-09T08:34:23;20.50;99.90
5508;DHT22;2776;51.046;6.772;2022-09-09T08:36:53;20.40;99.90
5508;DHT22;2776;51.046;6.772;2022-09-09T08:39:21;20.40;99.90
5508;DHT22;2776;51.046;6.772;2022-09-09T08:42:15;20.40;99.90
5508;DHT22;2776;51.046;6.772;2022-09-09T08:47:45;20.30;99.90
5508;DHT22;2776;51.046;6.772;2022-09-09T08:50:19;20.20;99.90
5508;DHT22;2776;51.046;6.772;2022-09-09T08:52:54;20.20;99.90
5508;DHT22;2776;51.046;6.772;2022-09-09T08:55:27;20.20;99.90
5508;DHT22;2776;51.046;6.772;2022-09-09T08:57:58;20.20;99.90
5508;DHT22;2776;51.046;6.772;2022-09-09T09:00:35;20.30;99.90
5508;DHT22;2776;51.046;6.772;2022-09-09T09:03:14;20.40;99.90
5508;DHT22;2776;51.046;6.772;2022-09-09T09:05:47;20.60;99.90
5508;DHT22;2776;51.046;6.772;2022-09-09T09:08:23;20.70;99.90
5508;DHT22;2776;51.046;6.772;2022-09-09T09:10:54;20.70;99.90
5508;DHT22;2776;51.046;6.772;2022-09-09T09:13:33;20.60;99.90
5508;DHT22;2776;51.046;6.772;2022-09-09T09:16:06;20.60;99.90
5508;DHT22;2776;51.046;6.772;2022-09-09T09:18:36;20.70;99.90
5508;DHT22;2776;51.046;6.772;2022-09-09T09:21:07;20.70;99.90
5508;DHT22;2776;51.046;6.772;2022-09-09T09:23:42;20.70;99.90
5508;DHT22;2776;51.046;6.772;2022-09-09T09:26:10;20.60;99.90
5508;DHT22;2776;51.046;6.772;2022-09-09T09:28:39;20.70;99.90
5508;DHT22;2776;51.046;6.772;2022-09-09T09:31:08;20.60;99.90
5508;DHT22;2776;51.046;6.772;2022-09-09T09:33:42;20.50;99.90
5508;DHT22;2776;51.046;6.772;2022-09-09T09:36:12;20.60;99.90
5508;DHT22;2776;51.046;6.772;2022-09-09T09:38:52;20.60;99.90
5508;DHT22;2776;51.046;6.772;2022-09-09T09:41:29;20.70;99.90
5508;DHT22;2776;51.046;6.772;2022-09-09T09:43:58;20.90;99.90
5508;DHT22;2776;51.046;6.772;2022-09-09T09:46:26;21.10;99.90
5508;DHT22;2776;51.046;6.772;2022-09-09T09:48:57;21.20;99.90
5508;DHT22;2776;51.046;6.772;2022-09-09T09:51:24;21.30;99.90
5508;DHT22;2776;51.046;6.772;2022-09-09T09:53:51;21.30;99.90
5508;DHT22;2776;51.046;6.772;2022-09-09T09:56:26;21.30;99.90
5508;DHT22;2776;51.046;6.772;2022-09-09T09:58:54;21.30;99.90
5508;DHT22;2776;51.046;6.772;2022-09-09T10:01:24;21.10;99.90
5508;DHT22;2776;51.046;6.772;2022-09-09T10:03:53;21.20;99.90
5508;DHT22;2776;51.046;6.772;2022-09-09T10:06:29;21.30;99.90
5508;DHT22;2776;51.046;6.772;2022-09-09T10:08:56;21.40;99.90
5508;DHT22;2776;51.046;6.772;2022-09-09T10:11:34;21.30;99.90
5508;DHT22;2776;51.046;6.772;2022-09-09T10:14:08;21.40;99.90
5508;DHT22;2776;51.046;6.772;2022-09-09T10:16:51;21.40;99.90
5508;DHT22;2776;51.046;6.772;2022-09-09T10:19:29;21.40;99.90
5508;DHT22;2776;51.046;6.772;2022-09-09T10:22:08;21.30;99.90
5508;DHT22;2776;51.046;6.772;2022-09-09T10:25:00;21.40;99.90
5508;DHT22;2776;51.046;6.772;2022-09-09T10:27:33;21.40;99.90
5508;DHT22;2776;51.046;6.772;2022-09-09T10:30:09;21.50;99.90
5508;DHT22;2776;51.046;6.772;2022-09-09T10:32:41;21.70;99.90
5508;DHT22;2776;51.046;6.772;2022-09-09T10:35:19;21.70;99.90
5508;DHT22;2776;51.046;6.772;2022-09-09T10:38:05;21.90;99.90
5508;DHT22;2776;51.046;6.772;2022-09-09T10:40:40;22.10;99.90
5508;DHT22;2776;51.046;6.772;2022-09-09T10:43:16;22.20;99.90
5508;DHT22;2776;51.046;6.772;2022-09-09T10:45:53;21.90;99.90
5508;DHT22;2776;51.046;6.772;2022-09-09T10:48:31;21.70;99.90
5508;DHT22;2776;51.046;6.772;2022-09-09T10:51:15;21.70;99.90
5508;DHT22;2776;51.046;6.772;2022-09-09T10:53:57;21.70;99.90
5508;DHT22;2776;51.046;6.772;2022-09-09T10:56:26;21.60;99.90
5508;DHT22;2776;51.046;6.772;2022-09-09T10:58:58;21.50;99.90
5508;DHT22;2776;51.046;6.772;2022-09-09T11:01:29;21.50;99.90
5508;DHT22;2776;51.046;6.772;2022-09-09T11:04:01;21.70;99.90
5508;DHT22;2776;51.046;6.772;2022-09-09T11:06:34;21.60;99.90
5508;DHT22;2776;51.046;6.772;2022-09-09T11:09:03;21.40;99.90
5508;DHT22;2776;51.046;6.772;2022-09-09T11:11:36;21.30;99.90
5508;DHT22;2776;51.046;6.772;2022-09-09T11:14:11;21.20;99.90
5508;DHT22;2776;51.046;6.772;2022-09-09T11:16:42;21.20;99.90
5508;DHT22;2776;51.046;6.772;2022-09-09T11:19:16;21.00;99.90
5508;DHT22;2776;51.046;6.772;2022-09-09T11:21:46;20.90;99.90
5508;DHT22;2776;51.046;6.772;2022-09-09T11:24:18;20.80;99.90
5508;DHT22;2776;51.046;6.772;2022-09-09T11:26:51;20.70;99.90
5508;DHT22;2776;51.046;6.772;2022-09-09T11:29:42;20.80;99.90
5508;DHT22;2776;51.046;6.772;2022-09-09T11:32:25;20.90;99.90
5508;DHT22;2776;51.046;6.772;2022-09-09T11:35:06;21.20;99.90
5508;DHT22;2776;51.046;6.772;2022-09-09T11:37:53;21.20;99.90
5508;DHT22;2776;51.046;6.772;2022-09-09T11:40:28;21.30;99.90
5508;DHT22;2776;51.046;6.772;2022-09-09T11:43:05;21.30;99.90
5508;DHT22;2776;51.046;6.772;2022-09-09T11:45:34;21.40;99.90
5508;DHT22;2776;51.046;6.772;2022-09-09T11:48:03;21.40;99.90
5508;DHT22;2776;51.046;6.772;2022-09-09T11:50:34;21.30;99.90
5508;DHT22;2776;51.046;6.772;2022-09-09T11:53:19;21.30;99.90
5508;DHT22;2776;51.046;6.772;2022-09-09T11:56:00;21.30;99.90
5508;DHT22;2776;51.046;6.772;2022-09-09T11:58:31;21.20;99.90
5508;DHT22;2776;51.046;6.772;2022-09-09T12:01:00;21.10;99.90
5508;DHT22;2776;51.046;6.772;2022-09-09T12:03:41;21.10;99.90
5508;DHT22;2776;51.046;6.772;2022-09-09T12:06:13;21.10;99.90
5508;DHT22;2776;51.046;6.772;2022-09-09T12:08:43;21.20;99.90
5508;DHT22;2776;51.046;6.772;2022-09-09T12:11:11;21.10;99.90
5508;DHT22;2776;51.046;6.772;2022-09-09T12:13:37;21.20;99.90
5508;DHT22;2776;51.046;6.772;2022-09-09T12:16:04;21.40;99.90
5508;DHT22;2776;51.046;6.772;2022-09-09T12:18:33;21.40;99.90
5508;DHT22;2776;51.046;6.772;2022-09-09T12:21:07;21.50;99.90
5508;DHT22;2776;51.046;6.772;2022-09-09T12:23:43;21.60;99.90
5508;DHT22;2776;51.046;6.772;2022-09-09T12:26:33;21.70;99.90
5508;DHT22;2776;51.046;6.772;2022-09-09T12:29:12;21.70;99.90
5508;DHT22;2776;51.046;6.772;2022-09-09T12:31:45;21.90;99.90
5508;DHT22;2776;51.046;6.772;2022-09-09T12:34:16;22.10;99.90
5508;DHT22;2776;51.046;6.772;2022-09-09T12:36:49;22.30;99.90
5508;DHT22;2776;51.046;6.772;2022-09-09T12:39:26;22.10;99.90
5508;DHT22;2776;51.046;6.772;2022-09-09T12:41:55;21.90;99.90
5508;DHT22;2776;51.046;6.772;2022-09-09T12:44:23;21.20;99.90
5508;DHT22;2776;51.046;6.772;2022-09-09T12:46:51;20.60;99.90
5508;DHT22;2776;51.046;6.772;2022-09-09T12:49:29;20.10;99.90
5508;DHT22;2776;51.046;6.772;2022-09-09T12:52:01;19.90;99.90
5508;DHT22;2776;51.046;6.772;2022-09-09T12:54:32;19.80;99.90
5508;DHT22;2776;51.046;6.772;2022-09-09T12:56:59;20.00;99.90
5508;DHT22;2776;51.046;6.772;2022-09-09T12:59:27;20.40;99.90
5508;DHT22;2776;51.046;6.772;2022-09-09T13:02:01;20.60;99.90
5508;DHT22;2776;51.046;6.772;2022-09-09T13:04:27;20.80;99.90
5508;DHT22;2776;51.046;6.772;2022-09-09T13:07:05;20.80;99.90
5508;DHT22;2776;51.046;6.772;2022-09-09T13:09:36;20.90;99.90
5508;DHT22;2776;51.046;6.772;2022-09-09T13:12:04;21.10;99.90
5508;DHT22;2776;51.046;6.772;2022-09-09T13:14:34;21.40;99.90
5508;DHT22;2776;51.046;6.772;2022-09-09T13:17:04;21.60;99.90
5508;DHT22;2776;51.046;6.772;2022-09-09T13:19:34;21.60;99.90
5508;DHT22;2776;51.046;6.772;2022-09-09T13:22:11;21.70;99.90
5508;DHT22;2776;51.046;6.772;2022-09-09T13:24:40;21.80;99.90
5508;DHT22;2776;51.046;6.772;2022-09-09T13:27:24;21.90;99.90
5508;DHT22;2776;51.046;6.772;2022-09-09T13:29:54;22.00;99.90
5508;DHT22;2776;51.046;6.772;2022-09-09T13:32:23;22.10;99.90
5508;DHT22;2776;51.046;6.772;2022-09-09T13:34:51;22.00;99.90
5508;DHT22;2776;51.046;6.772;2022-09-09T13:37:23;21.90;99.90
5508;DHT22;2776;51.046;6.772;2022-09-09T13:39:54;21.70;99.90
5508;DHT22;2776;51.046;6.772;2022-09-09T13:42:24;21.80;99.90
5508;DHT22;2776;51.046;6.772;2022-09-09T13:44:52;21.90;99.90
5508;DHT22;2776;51.046;6.772;2022-09-09T13:47:20;22.00;99.90
5508;DHT22;2776;51.046;6.772;2022-09-09T13:49:48;22.10;99.90
5508;DHT22;2776;51.046;6.772;2022-09-09T13:52:16;22.10;99.90
5508;DHT22;2776;51.046;6.772;2022-09-09T13:54:47;22.10;99.90
5508;DHT22;2776;51.046;6.772;2022-09-09T13:57:18;22.00;99.90
5508;DHT22;2776;51.046;6.772;2022-09-09T13:59:45;21.90;99.90
5508;DHT22;2776;51.046;6.772;2022-09-09T14:02:12;22.10;99.90
5508;DHT22;2776;51.046;6.772;2022-09-09T14:04:39;22.00;99.90
5508;DHT22;2776;51.046;6.772;2022-09-09T14:07:09;22.10;99.90
5508;DHT22;2776;51.046;6.772;2022-09-09T14:09:38;22.20;99.90
5508;DHT22;2776;51.046;6.772;2022-09-09T14:12:05;22.10;99.90
5508;DHT22;2776;51.046;6.772;2022-09-09T14:14:33;22.20;99.90
5508;DHT22;2776;51.046;6.772;2022-09-09T14:17:00;22.20;99.90
5508;DHT22;2776;51.046;6.772;2022-09-09T14:19:27;22.10;99.90
5508;DHT22;2776;51.046;6.772;2022-09-09T14:21:53;21.90;99.90
5508;DHT22;2776;51.046;6.772;2022-09-09T14:24:20;21.80;99.90
5508;DHT22;2776;51.046;6.772;2022-09-09T14:26:47;21.70;99.90
5508;DHT22;2776;51.046;6.772;2022-09-09T14:29:14;21.60;99.90
5508;DHT22;2776;51.046;6.772;2022-09-09T14:31:42;21.40;99.90
5508;DHT22;2776;51.046;6.772;2022-09-09T14:34:09;21.10;99.90
5508;DHT22;2776;51.046;6.772;2022-09-09T14:36:36;20.90;99.90
5508;DHT22;2776;51.046;6.772;2022-09-09T14:39:03;20.70;99.90
5508;DHT22;2776;51.046;6.772;2022-09-09T14:41:30;20.60;99.90
5508;DHT22;2776;51.046;6.772;2022-09-09T14:43:57;20.50;99.90
5508;DHT22;2776;51.046;6.772;2022-09-09T14:46:25;20.50;99.90
5508;DHT22;2776;51.046;6.772;2022-09-09T14:48:53;20.50;99.90
5508;DHT22;2776;51.046;6.772;2022-09-09T14:51:22;20.50;99.90
5508;DHT22;2776;51.046;6.772;2022-09-09T14:53:51;20.50;99.90
5508;DHT22;2776;51.046;6.772;2022-09-09T14:56:20;20.40;99.90
5508;DHT22;2776;51.046;6.772;2022-09-09T14:58:48;20.40;99.90
5508;DHT22;2776;51.046;6.772;2022-09-09T15:01:17;20.60;99.90
5508;DHT22;2776;51.046;6.772;2022-09-09T15:03:49;20.60;99.90
5508;DHT22;2776;51.046;6.772;2022-09-09T15:06:18;20.70;99.90
5508;DHT22;2776;51.046;6.772;2022-09-09T15:08:46;20.70;99.90
5508;DHT22;2776;51.046;6.772;2022-09-09T15:11:14;20.80;99.90
5508;DHT22;2776;51.046;6.772;2022-09-09T15:13:42;21.00;99.90
5508;DHT22;2776;51.046;6.772;2022-09-09T15:16:10;21.20;99.90
5508;DHT22;2776;51.046;6.772;2022-09-09T15:18:38;21.10;99.90
5508;DHT22;2776;51.046;6.772;2022-09-09T15:21:08;21.20;99.90
5508;DHT22;2776;51.046;6.772;2022-09-09T15:23:36;21.30;99.90
5508;DHT22;2776;51.046;6.772;2022-09-09T15:26:04;21.20;99.90
5508;DHT22;2776;51.046;6.772;2022-09-09T15:28:31;21.10;99.90
5508;DHT22;2776;51.046;6.772;2022-09-09T15:30:59;20.80;99.90
5508;DHT22;2776;51.046;6.772;2022-09-09T15:33:31;20.60;99.90
5508;DHT22;2776;51.046;6.772;2022-09-09T15:35:58;20.30;99.90
5508;DHT22;2776;51.046;6.772;2022-09-09T15:38:25;20.10;99.90
5508;DHT22;2776;51.046;6.772;2022-09-09T15:40:54;20.00;99.90
5508;DHT22;2776;51.046;6.772;2022-09-09T15:43:22;20.00;99.90
5508;DHT22;2776;51.046;6.772;2022-09-09T15:45:54;20.00;99.90
5508;DHT22;2776;51.046;6.772;2022-09-09T15:48:30;20.20;99.90
5508;DHT22;2776;51.046;6.772;2022-09-09T15:51:01;20.30;99.90
5508;DHT22;2776;51.046;6.772;2022-09-09T15:53:29;20.40;99.90
5508;DHT22;2776;51.046;6.772;2022-09-09T15:55:59;20.50;99.90
5508;DHT22;2776;51.046;6.772;2022-09-09T15:58:25;20.60;99.90
5508;DHT22;2776;51.046;6.772;2022-09-09T16:01:01;20.40;99.90
5508;DHT22;2776;51.046;6.772;2022-09-09T16:03:28;20.30;99.90
5508;DHT22;2776;51.046;6.772;2022-09-09T16:05:55;20.20;99.90
5508;DHT22;2776;51.046;6.772;2022-09-09T16:08:22;20.10;99.90
5508;DHT22;2776;51.046;6.772;2022-09-09T16:10:49;20.10;99.90
5508;DHT22;2776;51.046;6.772;2022-09-09T16:13:17;20.00;99.90
5508;DHT22;2776;51.046;6.772;2022-09-09T16:15:44;19.90;99.90
5508;DHT22;2776;51.046;6.772;2022-09-09T16:18:11;19.90;99.90
5508;DHT22;2776;51.046;6.772;2022-09-09T16:20:37;19.90;99.90
5508;DHT22;2776;51.046;6.772;2022-09-09T16:23:06;20.00;99.90
5508;DHT22;2776;51.046;6.772;2022-09-09T16:25:33;19.90;99.90
5508;DHT22;2776;51.046;6.772;2022-09-09T16:28:00;19.80;99.90
5508;DHT22;2776;51.046;6.772;2022-09-09T16:30:28;19.80;99.90